Time,TemperatureF,DewpointF,PressureIn,WindDirection,WindDirectionDegrees,WindSpeedMPH,WindSpeedGustMPH,Humidity,HourlyPrecipIn,Conditions,Clouds,dailyrainin,SoftwareType,DateUTC
2013-12-03 00:02:00,32.2,31.7,28.85,East,90,4.6,4.6,98,0.00,CLR,,0.00,WeatherDisplay:10.37,2013-12-03 06:02:00,
2013-12-03 00:07:00,32.2,31.7,28.85,East,90,5.4,5.4,98,0.00,CLR,,0.00,WeatherDisplay:10.37,2013-12-03 06:07:00,
2013-12-03 00:12:00,32.2,31.7,28.85,East,90,5.8,5.8,98,0.00,CLR,,0.00,WeatherDisplay:10.37,2013-12-03 06:12:00,
2013-12-03 00:17:00,32.2,31.7,28.85,East,90,4.6,4.6,98,0.00,CLR,,0.00,WeatherDisplay:10.37,2013-12-03 06:17:00,
2013-12-03 00:22:00,32.2,31.7,28.84,East,90,4.6,4.6,98,0.00,CLR,,0.00,WeatherDisplay:10.37,2013-12-03 06:22:00,
2013-12-03 00:27:00,32.4,31.9,28.84,East,90,5.8,5.8,98,0.00,CLR,,0.00,WeatherDisplay:10.37,2013-12-03 06:27:00,
2013-12-03 00:32:00,32.2,31.7,28.85,East,90,5.8,5.8,98,0.00,CLR,,0.00,WeatherDisplay:10.37,2013-12-03 06:32:00,
2013-12-03 00:37:00,32.2,31.7,28.84,East,90,5.8,5.8,98,0.00,CLR,,0.00,WeatherDisplay:10.37,2013-12-03 06:37:00,
2013-12-03 00:42:00,32.2,31.9,28.84,ENE,68,6.9,6.9,99,0.00,CLR,,0.00,WeatherDisplay:10.37,2013-12-03 06:42:00,
2013-12-03 00:47:00,32.4,32.1,28.84,East,90,4.6,4.6,99,0.00,CLR,,0.00,WeatherDisplay:10.37,2013-12-03 06:47:00,
2013-12-03 00:52:00,32.4,32.1,28.84,SE,135,6.9,6.9,99,0.00,CLR,,0.00,WeatherDisplay:10.37,2013-12-03 06:52:00,
2013-12-03 00:57:00,32.2,31.9,28.84,ESE,112,4.6,4.6,99,0.00,CLR,,0.00,WeatherDisplay:10.37,2013-12-03 06:57:00,
2013-12-03 01:02:00,32.2,31.9,28.84,East,90,4.6,4.6,99,0.00,CLR,,0.00,WeatherDisplay:10.37,2013-12-03 07:02:00,
2013-12-03 01:07:00,32.2,31.9,28.84,East,90,5.8,5.8,99,0.00,CLR,,0.00,WeatherDisplay:10.37,2013-12-03 07:07:00,
2013-12-03 01:12:00,32.2,31.9,28.85,East,90,3.5,3.5,99,0.00,CLR,,0.00,WeatherDisplay:10.37,2013-12-03 07:12:00,
2013-12-03 01:17:00,32.4,32.1,28.84,East,90,3.5,3.5,99,0.00,CLR,,0.00,WeatherDisplay:10.37,2013-12-03 07:17:00,
2013-12-03 01:22:00,32.4,32.1,28.84,East,90,5.8,5.8,99,0.00,CLR,,0.00,WeatherDisplay:10.37,2013-12-03 07:22:00,
2013-12-03 01:27:00,32.2,31.9,28.84,NE,45,4.6,4.6,99,0.00,CLR,,0.00,WeatherDisplay:10.37,2013-12-03 07:27:00,
2013-12-03 01:32:00,32.4,32.1,28.84,East,90,7.6,7.6,99,0.00,CLR,,0.00,WeatherDisplay:10.37,2013-12-03 07:32:00,
2013-12-03 01:37:00,32.4,32.1,28.84,East,90,8.1,8.1,99,0.00,CLR,,0.00,WeatherDisplay:10.37,2013-12-03 07:37:00,
2013-12-03 01:42:00,32.2,31.9,28.84,East,90,4.6,4.6,99,0.00,CLR,,0.00,WeatherDisplay:10.37,2013-12-03 07:42:00,
2013-12-03 01:47:00,32.4,32.1,28.85,East,90,5.8,5.8,99,0.00,CLR,,0.00,WeatherDisplay:10.37,2013-12-03 07:47:00,
2013-12-03 01:52:00,32.2,31.9,28.85,East,90,4.6,4.6,99,0.00,CLR,,0.00,WeatherDisplay:10.37,2013-12-03 07:52:00,
2013-12-03 01:57:00,32.2,31.9,28.85,East,90,5.8,5.8,99,0.00,CLR,,0.00,WeatherDisplay:10.37,2013-12-03 07:57:00,
2013-12-03 02:02:00,32.2,31.9,28.84,East,90,6.9,6.9,99,0.00,CLR,,0.00,WeatherDisplay:10.37,2013-12-03 08:02:00,
2013-12-03 02:07:00,32.4,32.1,28.84,SE,135,5.8,5.8,99,0.00,CLR,,0.00,WeatherDisplay:10.37,2013-12-03 08:07:00,
2013-12-03 02:12:00,32.2,31.9,28.85,East,90,3.5,3.5,99,0.00,CLR,,0.00,WeatherDisplay:10.37,2013-12-03 08:12:00,
2013-12-03 02:17:00,32.2,31.9,28.84,East,90,4.6,4.6,99,0.00,CLR,,0.00,WeatherDisplay:10.37,2013-12-03 08:17:00,
2013-12-03 02:22:00,32.2,31.9,28.84,East,90,4.6,4.6,99,0.00,CLR,,0.00,WeatherDisplay:10.37,2013-12-03 08:22:00,
2013-12-03 02:27:00,32.2,31.9,28.85,East,90,4.6,4.6,99,0.00,CLR,,0.00,WeatherDisplay:10.37,2013-12-03 08:27:00,
2013-12-03 02:32:00,32.2,31.9,28.84,East,90,3.5,3.5,99,0.00,CLR,,0.00,WeatherDisplay:10.37,2013-12-03 08:32:00,
2013-12-03 02:37:00,32.4,32.1,28.84,East,90,5.8,5.8,99,0.00,CLR,,0.00,WeatherDisplay:10.37,2013-12-03 08:37:00,
2013-12-03 02:42:00,32.2,31.9,28.84,East,90,3.5,3.5,99,0.00,CLR,,0.00,WeatherDisplay:10.37,2013-12-03 08:42:00,
2013-12-03 02:47:00,32.2,31.9,28.82,East,90,5.8,5.8,99,0.00,CLR,,0.00,WeatherDisplay:10.37,2013-12-03 08:47:00,
2013-12-03 02:52:00,32.2,31.9,28.82,East,90,5.8,5.8,99,0.00,CLR,,0.00,WeatherDisplay:10.37,2013-12-03 08:52:00,
2013-12-03 02:57:00,32.2,31.9,28.82,NE,45,5.8,5.8,99,0.00,CLR,,0.00,WeatherDisplay:10.37,2013-12-03 08:57:00,
2013-12-03 03:02:00,32.2,31.9,28.82,East,90,5.8,5.8,99,0.00,CLR,,0.00,WeatherDisplay:10.37,2013-12-03 09:02:00,
2013-12-03 03:07:00,32.2,31.9,28.82,East,90,4.6,4.6,99,0.00,CLR,,0.00,WeatherDisplay:10.37,2013-12-03 09:07:00,
2013-12-03 03:12:00,32.2,31.9,28.82,NE,45,5.8,5.8,99,0.00,CLR,,0.00,WeatherDisplay:10.37,2013-12-03 09:12:00,
2013-12-03 03:18:00,32.2,31.9,28.82,East,90,3.5,3.5,99,0.00,CLR,,0.00,WeatherDisplay:10.37,2013-12-03 09:18:00,
2013-12-03 03:23:00,32.2,31.9,28.82,NE,45,3.5,3.5,99,0.00,CLR,,0.00,WeatherDisplay:10.37,2013-12-03 09:23:00,
2013-12-03 03:28:00,32.2,31.9,28.83,East,90,4.6,4.6,99,0.00,CLR,,0.00,WeatherDisplay:10.37,2013-12-03 09:28:00,
2013-12-03 03:33:00,32.4,32.1,28.83,East,90,5.8,5.8,99,0.00,CLR,,0.00,WeatherDisplay:10.37,2013-12-03 09:33:00,
2013-12-03 03:38:00,32.2,31.9,28.84,East,90,4.6,4.6,99,0.00,CLR,,0.00,WeatherDisplay:10.37,2013-12-03 09:38:00,
2013-12-03 03:43:00,32.2,31.9,28.84,East,90,4.6,4.6,99,0.00,CLR,,0.00,WeatherDisplay:10.37,2013-12-03 09:43:00,
2013-12-03 03:48:00,32.4,32.1,28.83,SE,135,4.6,4.6,99,0.00,CLR,,0.00,WeatherDisplay:10.37,2013-12-03 09:48:00,
2013-12-03 03:53:00,32.4,32.1,28.84,East,90,4.6,4.6,99,0.00,CLR,,0.00,WeatherDisplay:10.37,2013-12-03 09:53:00,
2013-12-03 03:58:00,32.4,32.1,28.83,NE,45,5.8,5.8,99,0.00,CLR,,0.00,WeatherDisplay:10.37,2013-12-03 09:58:00,
2013-12-03 04:03:00,32.4,32.1,28.84,East,90,5.8,5.8,99,0.00,CLR,,0.00,WeatherDisplay:10.37,2013-12-03 10:03:00,
2013-12-03 04:08:00,32.4,32.1,28.84,East,90,5.8,5.8,99,0.00,CLR,,0.00,WeatherDisplay:10.37,2013-12-03 10:08:00,
2013-12-03 04:13:00,32.4,32.1,28.84,East,90,5.8,5.8,99,0.00,CLR,,0.00,WeatherDisplay:10.37,2013-12-03 10:13:00,
2013-12-03 04:18:00,32.4,32.1,28.84,East,90,4.6,4.6,99,0.00,CLR,,0.00,WeatherDisplay:10.37,2013-12-03 10:18:00,
2013-12-03 04:23:00,32.4,32.1,28.83,NE,45,6.9,6.9,99,0.00,CLR,,0.00,WeatherDisplay:10.37,2013-12-03 10:23:00,
2013-12-03 04:28:00,32.4,32.1,28.84,East,90,5.8,5.8,99,0.00,CLR,,0.00,WeatherDisplay:10.37,2013-12-03 10:28:00,
2013-12-03 04:33:00,32.4,32.1,28.83,East,90,5.8,5.8,99,0.00,CLR,,0.00,WeatherDisplay:10.37,2013-12-03 10:33:00,
2013-12-03 04:38:00,32.5,32.3,28.84,East,90,6.9,6.9,99,0.00,CLR,,0.00,WeatherDisplay:10.37,2013-12-03 10:38:00,
2013-12-03 04:43:00,32.5,32.3,28.84,East,90,5.8,5.8,99,0.00,CLR,,0.00,WeatherDisplay:10.37,2013-12-03 10:43:00,
2013-12-03 04:48:00,32.5,32.3,28.84,East,90,5.8,5.8,99,0.00,CLR,,0.00,WeatherDisplay:10.37,2013-12-03 10:48:00,
2013-12-03 04:53:00,32.5,32.3,28.83,NE,45,5.8,5.8,99,0.00,CLR,,0.00,WeatherDisplay:10.37,2013-12-03 10:53:00,
2013-12-03 04:58:00,32.5,32.3,28.84,East,90,4.6,4.6,99,0.00,CLR,,0.00,WeatherDisplay:10.37,2013-12-03 10:58:00,
2013-12-03 05:03:00,32.5,32.3,28.83,East,90,4.6,4.6,99,0.00,CLR,,0.00,WeatherDisplay:10.37,2013-12-03 11:03:00,
2013-12-03 05:08:00,32.5,32.3,28.83,East,90,4.6,4.6,99,0.00,CLR,,0.00,WeatherDisplay:10.37,2013-12-03 11:08:00,
2013-12-03 05:13:00,32.4,32.1,28.83,East,90,5.8,5.8,99,0.00,CLR,,0.00,WeatherDisplay:10.37,2013-12-03 11:13:00,
2013-12-03 05:18:00,32.4,32.1,28.82,East,90,5.8,5.8,99,0.00,CLR,,0.00,WeatherDisplay:10.37,2013-12-03 11:18:00,
2013-12-03 05:23:00,32.4,32.1,28.82,East,90,5.8,5.8,99,0.00,CLR,,0.00,WeatherDisplay:10.37,2013-12-03 11:23:00,
2013-12-03 05:28:00,32.4,32.1,28.83,East,90,5.8,5.8,99,0.00,CLR,,0.00,WeatherDisplay:10.37,2013-12-03 11:28:00,
2013-12-03 05:33:00,32.4,32.1,28.83,East,90,5.8,5.8,99,0.00,CLR,,0.00,WeatherDisplay:10.37,2013-12-03 11:33:00,
2013-12-03 05:38:00,32.4,32.1,28.83,East,90,5.8,5.8,99,0.00,CLR,,0.00,WeatherDisplay:10.37,2013-12-03 11:38:00,
2013-12-03 05:43:00,32.4,32.1,28.83,East,90,3.5,3.5,99,0.00,CLR,,0.00,WeatherDisplay:10.37,2013-12-03 11:43:00,
2013-12-03 05:48:00,32.4,32.1,28.84,East,90,5.8,5.8,99,0.00,CLR,,0.00,WeatherDisplay:10.37,2013-12-03 11:48:00,
2013-12-03 05:51:00,32.4,32.1,28.84,East,90,6.9,6.9,99,0.00,CLR,,0.00,WeatherDisplay:10.37,2013-12-03 11:51:00,
2013-12-03 05:53:00,32.4,32.1,28.84,East,90,6.9,6.9,99,0.00,CLR,,0.00,WeatherDisplay:10.37,2013-12-03 11:53:00,
2013-12-03 05:58:00,32.4,32.1,28.84,East,90,6.9,6.9,99,0.00,CLR,,0.00,WeatherDisplay:10.37,2013-12-03 11:58:00,
2013-12-03 06:09:00,32.4,32.1,28.84,East,90,6.9,6.9,99,0.00,CLR,,0.00,WeatherDisplay:10.37,2013-12-03 12:09:00,
2013-12-03 06:47:00,32.4,32.1,28.84,East,90,6.9,6.9,99,0.00,CLR,,0.00,WeatherDisplay:10.37,2013-12-03 12:47:00,
2013-12-03 06:52:00,32.4,32.1,28.84,East,90,6.9,6.9,99,0.00,CLR,,0.00,WeatherDisplay:10.37,2013-12-03 12:52:00,
2013-12-03 06:57:00,32.4,32.1,28.84,East,90,6.9,6.9,99,0.00,CLR,,0.00,WeatherDisplay:10.37,2013-12-03 12:57:00,
2013-12-03 07:35:00,32.4,32.1,28.84,East,90,6.9,6.9,99,0.00,CLR,,0.00,WeatherDisplay:10.37,2013-12-03 13:35:00,
2013-12-03 08:49:00,32.4,32.1,28.84,East,90,6.9,6.9,99,0.00,CLR,,0.00,WeatherDisplay:10.37,2013-12-03 14:49:00,
2013-12-03 10:45:00,32.4,32.1,28.84,East,90,6.9,6.9,99,0.00,CLR,,0.00,WeatherDisplay:10.37,2013-12-03 16:45:00,
2013-12-03 11:25:00,32.4,32.1,28.84,East,90,6.9,6.9,99,0.00,CLR,,0.00,WeatherDisplay:10.37,2013-12-03 17:25:00,
2013-12-03 11:46:00,32.4,32.1,28.84,East,90,6.9,6.9,99,0.00,CLR,,0.00,WeatherDisplay:10.37,2013-12-03 17:46:00,
2013-12-03 11:58:00,32.4,32.1,28.84,East,90,6.9,6.9,99,0.00,CLR,,0.00,WeatherDisplay:10.37,2013-12-03 17:58:00,
2013-12-03 13:08:00,32.4,32.1,28.84,East,90,6.9,6.9,99,0.00,CLR,,0.00,WeatherDisplay:10.37,2013-12-03 19:08:00,
2013-12-03 14:42:00,32.4,32.1,28.84,East,90,6.9,6.9,99,0.00,CLR,,0.00,WeatherDisplay:10.37,2013-12-03 20:42:00,
2013-12-03 15:16:00,32.4,32.1,28.84,East,90,6.9,6.9,99,0.00,CLR,,0.00,WeatherDisplay:10.37,2013-12-03 21:16:00,
2013-12-03 15:22:00,32.4,32.1,28.84,East,90,6.9,6.9,99,0.00,CLR,,0.00,WeatherDisplay:10.37,2013-12-03 21:22:00,
2013-12-03 15:39:00,32.4,32.1,28.84,East,90,6.9,6.9,99,0.00,CLR,,0.00,WeatherDisplay:10.37,2013-12-03 21:39:00,
2013-12-03 18:35:00,32.4,32.1,28.84,East,90,6.9,6.9,99,0.00,CLR,,0.00,WeatherDisplay:10.37,2013-12-04 00:35:00,
2013-12-03 18:47:00,32.4,32.1,28.84,East,90,6.9,6.9,99,0.00,CLR,,0.00,WeatherDisplay:10.37,2013-12-04 00:47:00,
2013-12-03 19:09:00,32.4,32.1,28.84,East,90,6.9,6.9,99,0.00,CLR,,0.00,WeatherDisplay:10.37,2013-12-04 01:09:00,
2013-12-03 19:51:00,32.4,32.1,28.84,East,90,6.9,6.9,99,0.00,CLR,,0.00,WeatherDisplay:10.37,2013-12-04 01:51:00,